Terminal Aerodrome Forecast
Issued by NWS Charleston, WV

Current Version | Previous Version | Graphics & Text | Print | Product List | Glossary On
Versions: 1 2 3 4 5 6 7 8 9 10 11 12 13 14 15 16 17 18 19 20 21 22 23 24 25 26 27
000
FTUS41 KRLX 292346
TAFCRW
TAF
KCRW 292346Z 3000/3024 19007KT P6SM SCT120
     FM300500 16005KT P6SM BKN110
     FM300700 17005KT P6SM -SHRA VCTS OVC050CB
     FM301500 20008G18KT P6SM -SHRA OVC035
     FM301700 21008G18KT 3SM SHRA SCT010 OVC030
     FM302200 24007G16KT P6SM OVC030=

USA.gov is the U.S. government's official web portal to all federal, state and local government web resources and services.